createdAt,value
2023-11-24T00:01:12.531Z,101011.00
2023-11-24T00:03:45.109Z,101005.38
2023-11-24T00:06:16.315Z,101007.59
2023-11-24T00:08:49.257Z,101014.28
2023-11-24T00:11:20.745Z,101020.97
2023-11-24T00:13:50.810Z,101027.63
2023-11-24T00:16:22.806Z,101031.97
2023-11-24T00:18:52.719Z,101039.09
2023-11-24T00:21:22.811Z,101043.56
2023-11-24T00:23:55.602Z,101033.66
2023-11-24T00:26:27.689Z,101031.53
2023-11-24T00:28:57.913Z,101035.78
2023-11-24T00:31:28.960Z,101044.91
2023-11-24T00:34:00.062Z,101045.03
2023-11-24T00:36:31.265Z,101040.72
2023-11-24T00:39:05.596Z,101030.22
2023-11-24T00:41:35.494Z,101050.97
2023-11-24T00:44:05.535Z,101049.31
2023-11-24T00:46:36.599Z,101047.44
2023-11-24T00:49:06.963Z,101055.38
2023-11-24T00:51:36.850Z,101058.03
2023-11-24T00:54:10.906Z,101057.22
2023-11-24T00:56:40.784Z,101054.63
2023-11-24T00:59:10.655Z,101050.78
2023-11-24T01:01:40.859Z,101064.97
2023-11-24T01:04:12.171Z,101056.84
2023-11-24T01:06:42.408Z,101053.53
2023-11-24T01:09:14.919Z,101050.00
2023-11-24T01:11:44.766Z,101044.09
2023-11-24T01:14:14.590Z,101038.19
2023-11-24T01:16:44.490Z,101031.66
2023-11-24T01:19:15.867Z,101041.41
2023-11-24T01:21:45.870Z,101034.69
2023-11-24T01:24:18.540Z,101026.81
2023-11-24T01:26:48.876Z,101023.63
2023-11-24T01:29:18.767Z,101019.91
2023-11-24T01:31:48.787Z,101029.13
2023-11-24T01:34:18.743Z,101025.31
2023-11-24T01:36:48.856Z,101030.75
2023-11-24T01:39:22.555Z,101047.59
2023-11-24T01:41:52.574Z,101037.66
2023-11-24T01:44:24.174Z,101045.63
2023-11-24T01:46:54.090Z,101040.19
2023-11-24T01:49:24.519Z,101039.69
2023-11-24T01:51:56.439Z,101035.97
2023-11-24T01:54:35.054Z,101022.50
2023-11-24T01:57:06.592Z,101022.50
2023-11-24T01:59:36.896Z,101016.59
2023-11-24T02:02:07.993Z,101009.59
2023-11-24T02:04:38.205Z,101007.97
2023-11-24T02:07:08.249Z,101012.38
2023-11-24T02:09:40.841Z,101005.38
2023-11-24T02:12:11.430Z,101010.28
2023-11-24T02:14:41.321Z,101007.09
2023-11-24T02:17:11.161Z,101000.66
2023-11-24T02:19:41.291Z,100995.84
2023-11-24T02:22:11.371Z,100990.53
2023-11-24T02:24:44.040Z,100981.91
2023-11-24T02:27:14.850Z,100992.22
2023-11-24T02:29:44.713Z,100993.03
2023-11-24T02:32:15.173Z,100997.66
2023-11-24T02:34:45.554Z,100994.34
2023-11-24T02:37:15.824Z,100988.63
2023-11-24T02:39:49.316Z,100988.41
2023-11-24T02:42:19.364Z,100983.59
2023-11-24T02:44:49.280Z,100980.97
2023-11-24T02:47:19.204Z,100969.44
2023-11-24T02:49:49.082Z,100963.84
2023-11-24T02:52:18.923Z,100964.47
2023-11-24T02:54:53.781Z,100969.34
2023-11-24T02:57:24.475Z,100964.53
2023-11-24T02:59:54.430Z,100962.41
2023-11-24T03:02:24.516Z,100960.31
2023-11-24T03:04:52.023Z,100954.91
2023-11-24T03:07:21.934Z,100954.69
2023-11-24T03:09:54.617Z,100957.63
2023-11-24T03:12:24.607Z,100940.88
2023-11-24T03:14:55.365Z,100938.44
2023-11-24T03:17:25.186Z,100931.16
2023-11-24T03:19:55.009Z,100926.31
2023-11-24T03:22:25.908Z,100929.63
2023-11-24T03:25:01.043Z,100928.84
2023-11-24T03:27:30.938Z,100913.97
2023-11-24T03:30:00.872Z,100924.00
2023-11-24T03:32:31.563Z,100920.81
2023-11-24T03:35:01.522Z,100925.41
2023-11-24T03:37:31.464Z,100927.63
2023-11-24T03:40:04.799Z,100925.19
2023-11-24T03:42:34.713Z,100925.50
2023-11-24T03:45:06.106Z,100928.22
2023-11-24T03:47:36.593Z,100931.22
2023-11-24T03:50:06.988Z,100926.13
2023-11-24T03:52:37.204Z,100920.72
2023-11-24T03:55:12.824Z,100918.81
2023-11-24T03:57:45.604Z,100910.56
2023-11-24T04:00:16.292Z,100910.78
2023-11-24T04:02:47.759Z,100905.97
2023-11-24T04:05:19.119Z,100908.69
2023-11-24T04:07:49.594Z,100902.75
2023-11-24T04:10:22.698Z,100904.75
2023-11-24T04:12:52.662Z,100901.53
2023-11-24T04:15:22.515Z,100906.16
2023-11-24T04:17:52.482Z,100900.25
2023-11-24T04:20:22.644Z,100910.84
2023-11-24T04:22:52.551Z,100905.16
2023-11-24T04:25:25.108Z,100898.13
2023-11-24T04:27:55.039Z,100894.34
2023-11-24T04:30:24.989Z,100888.09
2023-11-24T04:32:55.062Z,100887.91
2023-11-24T04:35:28.650Z,100889.50
2023-11-24T04:37:58.549Z,100885.69
2023-11-24T04:40:31.257Z,100889.72
2023-11-24T04:43:01.176Z,100881.06
2023-11-24T04:45:32.476Z,100889.09
2023-11-24T04:48:04.274Z,100879.38
2023-11-24T04:50:34.372Z,100880.81
2023-11-24T04:53:04.277Z,100891.09
2023-11-24T04:55:37.736Z,100881.88
2023-11-24T04:58:07.664Z,100881.06
2023-11-24T05:00:37.599Z,100874.38
2023-11-24T05:03:07.531Z,100875.66
2023-11-24T05:05:37.423Z,100888.09
2023-11-24T05:08:07.827Z,100880.28
2023-11-24T05:10:40.297Z,100873.25
2023-11-24T05:13:10.694Z,100886.31
2023-11-24T05:15:40.786Z,100882.09
2023-11-24T05:18:10.774Z,100875.06
2023-11-24T05:20:40.656Z,100877.47
2023-11-24T05:23:10.692Z,100880.66
2023-11-24T05:25:43.612Z,100893.09
2023-11-24T05:28:14.183Z,100888.59
2023-11-24T05:30:44.029Z,100874.56
2023-11-24T05:33:13.899Z,100875.06
2023-11-24T05:35:44.023Z,100869.97
2023-11-24T05:38:13.908Z,100856.22
2023-11-24T05:40:47.690Z,100856.03
2023-11-24T05:43:17.602Z,100852.78
2023-11-24T05:45:48.620Z,100859.00
2023-11-24T05:48:18.611Z,100850.63
2023-11-24T05:50:48.830Z,100845.78
2023-11-24T05:53:18.725Z,100846.19
2023-11-24T05:55:51.360Z,100859.69
2023-11-24T05:58:23.079Z,100858.09
2023-11-24T06:00:53.126Z,100857.00
2023-11-24T06:03:23.162Z,100859.63
2023-11-24T06:05:53.825Z,100859.81
2023-11-24T06:08:23.755Z,100859.94
2023-11-24T06:10:56.342Z,100853.19
2023-11-24T06:13:26.236Z,100850.78
2023-11-24T06:15:56.318Z,100853.19
2023-11-24T06:18:27.258Z,100840.56
2023-11-24T06:20:57.308Z,100837.56
2023-11-24T06:23:27.204Z,100832.25
2023-11-24T06:25:59.732Z,100830.63
2023-11-24T06:28:30.556Z,100832.34
2023-11-24T06:31:02.015Z,100830.72
2023-11-24T06:33:32.151Z,100826.41
2023-11-24T06:36:02.076Z,100831.84
2023-11-24T06:38:31.878Z,100823.22
2023-11-24T06:41:04.567Z,100835.94
2023-11-24T06:43:37.276Z,100828.53
2023-11-24T06:46:08.298Z,100836.34
2023-11-24T06:48:39.637Z,100839.88
2023-11-24T06:51:10.080Z,100846.16
2023-11-24T06:53:39.938Z,100842.25
2023-11-24T06:56:12.712Z,100844.75
2023-11-24T06:58:43.258Z,100845.94
2023-11-24T07:01:13.253Z,100847.59
2023-11-24T07:03:43.252Z,100844.72
2023-11-24T07:06:13.196Z,100843.66
2023-11-24T07:08:43.147Z,100830.25
2023-11-24T07:11:15.768Z,100838.34
2023-11-24T07:13:45.671Z,100853.47
2023-11-24T07:16:16.026Z,100829.94
2023-11-24T07:18:46.106Z,100835.03
2023-11-24T07:21:17.061Z,100819.94
2023-11-24T07:23:46.972Z,100824.84
2023-11-24T07:26:23.433Z,100820.44
2023-11-24T07:28:54.012Z,100826.09
2023-11-24T07:31:26.774Z,100831.13
2023-11-24T07:33:56.696Z,100822.69
2023-11-24T07:36:27.287Z,100825.72
2023-11-24T07:38:57.363Z,100840.28
2023-11-24T07:41:29.920Z,100837.97
2023-11-24T07:43:59.915Z,100821.22
2023-11-24T07:46:29.920Z,100827.44
2023-11-24T07:48:59.934Z,100829.34
2023-11-24T07:51:30.158Z,100827.53
2023-11-24T07:54:00.198Z,100831.03
2023-11-24T07:56:33.252Z,100829.13
2023-11-24T07:59:03.515Z,100824.84
2023-11-24T08:01:34.192Z,100817.31
2023-11-24T08:04:04.389Z,100820.09
2023-11-24T08:06:34.504Z,100804.59
2023-11-24T08:09:09.324Z,100801.88
2023-11-24T08:11:41.907Z,100799.91
2023-11-24T08:14:11.758Z,100791.78
2023-11-24T08:16:41.593Z,100770.78
2023-11-24T08:19:12.336Z,100770.78
2023-11-24T08:21:42.507Z,100770.78
2023-11-24T08:24:12.861Z,100770.78
2023-11-24T08:26:45.344Z,100773.97
2023-11-24T08:29:17.141Z,100773.97
2023-11-24T08:31:49.637Z,100772.38
2023-11-24T08:34:20.068Z,100779.16
2023-11-24T08:36:50.069Z,100779.94
2023-11-24T08:39:20.454Z,100782.47
2023-11-24T08:41:54.419Z,100774.13
2023-11-24T08:44:26.031Z,100780.56
2023-11-24T08:46:56.422Z,100776.84
2023-11-24T08:49:26.297Z,100773.56
2023-11-24T08:51:56.139Z,100774.66
2023-11-24T08:54:26.057Z,100768.16
2023-11-24T08:56:58.766Z,100772.94
2023-11-24T08:59:28.694Z,100769.75
2023-11-24T09:01:59.668Z,100757.84
2023-11-24T09:04:32.057Z,100760.53
2023-11-24T09:07:02.462Z,100749.16
2023-11-24T09:09:34.667Z,100752.34
2023-11-24T09:12:08.740Z,100736.13
2023-11-24T09:14:40.145Z,100739.84
2023-11-24T09:17:10.072Z,100742.56
2023-11-24T09:19:39.934Z,100722.53
2023-11-24T09:22:14.637Z,100727.34
2023-11-24T09:24:46.648Z,100724.69
2023-11-24T09:27:23.080Z,100726.84
2023-11-24T09:29:53.214Z,100725.75
2023-11-24T09:32:23.207Z,100731.34
2023-11-24T09:34:53.216Z,100728.78
2023-11-24T09:37:23.320Z,100722.75
2023-11-24T09:39:55.621Z,100722.75
2023-11-24T09:42:33.476Z,100716.72
2023-11-24T09:45:09.757Z,100712.41
2023-11-24T09:47:40.664Z,100711.94
2023-11-24T09:50:14.076Z,100703.00
2023-11-24T09:52:47.649Z,100700.09
2023-11-24T09:55:20.234Z,100717.13
2023-11-24T09:57:54.368Z,100713.94
2023-11-24T10:00:24.770Z,100718.53
2023-11-24T10:02:56.097Z,100720.25
2023-11-24T10:05:27.733Z,100727.44
2023-11-24T10:07:59.308Z,100707.31
2023-11-24T10:10:30.387Z,100714.53
2023-11-24T10:13:05.171Z,100715.53
2023-11-24T10:15:35.968Z,100707.72
2023-11-24T10:18:05.929Z,100700.31
2023-11-24T10:20:37.221Z,100703.72
2023-11-24T10:23:08.254Z,100692.91
2023-11-24T10:25:38.892Z,100706.91
2023-11-24T10:28:12.730Z,100715.94
2023-11-24T10:30:43.903Z,100710.72
2023-11-24T10:33:34.607Z,100717.75
2023-11-24T10:36:07.050Z,100713.94
2023-11-24T10:38:37.798Z,100719.63
2023-11-24T10:41:09.211Z,100714.22
2023-11-24T10:43:42.788Z,100703.72
2023-11-24T10:46:17.782Z,100697.38
2023-11-24T10:48:52.257Z,100692.28
2023-11-24T10:51:29.217Z,100690.19
2023-11-24T10:54:00.841Z,100680.97
2023-11-24T10:56:35.178Z,100678.28
2023-11-24T10:59:10.726Z,100664.25
2023-11-24T11:01:40.853Z,100658.72
2023-11-24T11:04:12.870Z,100662.44
2023-11-24T11:06:51.840Z,100665.72
2023-11-24T11:09:31.564Z,100674.06
2023-11-24T11:12:38.464Z,100671.25
2023-11-24T11:15:14.265Z,100662.03
2023-11-24T11:17:44.216Z,100658.63
2023-11-24T11:20:16.506Z,100659.00
2023-11-24T11:22:48.503Z,100656.00
2023-11-24T11:25:43.865Z,100647.81
2023-11-24T11:28:47.983Z,100643.59
2023-11-24T11:31:29.523Z,100638.16
2023-11-24T11:34:13.728Z,100643.41
2023-11-24T11:36:55.911Z,100639.38
2023-11-24T11:39:29.119Z,100646.22
2023-11-24T11:41:59.756Z,100650.19
2023-11-24T11:44:35.508Z,100653.00
2023-11-24T11:47:14.442Z,100642.50
2023-11-24T11:49:44.908Z,100632.19
2023-11-24T11:52:15.435Z,100634.28
2023-11-24T11:54:46.846Z,100625.78
2023-11-24T11:57:16.722Z,100632.78
2023-11-24T11:59:48.366Z,100627.75
2023-11-24T12:02:22.763Z,100616.75
2023-11-24T12:04:53.721Z,100622.31
2023-11-24T12:07:24.482Z,100615.00
2023-11-24T12:09:55.135Z,100621.53
2023-11-24T12:12:25.545Z,100608.34
2023-11-24T12:14:56.119Z,100616.63
2023-11-24T12:17:29.869Z,100612.63
2023-11-24T12:20:00.394Z,100599.13
2023-11-24T12:22:32.108Z,100595.94
2023-11-24T12:25:03.537Z,100602.69
2023-11-24T12:27:35.171Z,100611.00
2023-11-24T12:30:12.312Z,100602.47
2023-11-24T12:32:46.236Z,100608.28
2023-11-24T12:35:16.923Z,100597.63
2023-11-24T12:37:47.937Z,100585.41
2023-11-24T12:40:23.560Z,100593.81
2023-11-24T12:42:55.060Z,100575.00
2023-11-24T12:45:26.990Z,100589.44
2023-11-24T12:48:07.075Z,100593.66
2023-11-24T12:50:37.139Z,100562.63
2023-11-24T12:53:07.475Z,100543.19
2023-11-24T12:55:37.862Z,100540.69
2023-11-24T12:58:07.770Z,100543.06
2023-11-24T13:00:38.213Z,100539.72
2023-11-24T13:03:11.462Z,100550.56
2023-11-24T13:05:41.506Z,100537.53
2023-11-24T13:08:11.397Z,100535.63
2023-11-24T13:10:42.115Z,100536.53
2023-11-24T13:13:12.387Z,100529.72
2023-11-24T13:15:43.021Z,100515.25
2023-11-24T13:18:15.620Z,100525.50
2023-11-24T13:20:46.023Z,100519.44
2023-11-24T13:23:16.338Z,100520.44
2023-11-24T13:25:46.253Z,100525.88
2023-11-24T13:28:19.273Z,100542.69
2023-11-24T13:30:51.809Z,100539.88
2023-11-24T13:33:24.298Z,100523.75
2023-11-24T13:35:54.674Z,100518.13
2023-11-24T13:38:24.701Z,100522.75
2023-11-24T13:40:56.006Z,100509.28
2023-11-24T13:43:26.087Z,100524.22
2023-11-24T13:45:56.147Z,100528.66
2023-11-24T13:48:30.431Z,100545.47
2023-11-24T13:51:04.682Z,100555.91
2023-11-24T13:53:37.354Z,100557.69
2023-11-24T13:56:07.593Z,100532.25
2023-11-24T13:58:37.619Z,100534.97
2023-11-24T14:01:08.048Z,100535.06
2023-11-24T14:03:41.654Z,100532.50
2023-11-24T14:06:12.061Z,100534.09
2023-11-24T14:08:42.229Z,100534.69
2023-11-24T14:11:12.789Z,100538.50
2023-11-24T14:13:42.806Z,100564.63
2023-11-24T14:16:13.502Z,100562.03
2023-11-24T14:18:47.551Z,100566.72
2023-11-24T14:21:20.289Z,100577.94
2023-11-24T14:23:50.175Z,100602.75
2023-11-24T14:26:20.099Z,100581.00
2023-11-24T14:28:50.087Z,100537.69
2023-11-24T14:31:20.077Z,100538.91
2023-11-24T14:33:52.890Z,100535.25
2023-11-24T14:36:22.741Z,100542.94
2023-11-24T14:38:54.076Z,100532.81
2023-11-24T14:41:23.981Z,100523.47
2023-11-24T14:43:55.185Z,100524.47
2023-11-24T14:46:30.447Z,100532.09
2023-11-24T14:49:05.201Z,100535.59
2023-11-24T14:51:37.766Z,100530.69
2023-11-24T14:54:07.923Z,100526.88
2023-11-24T14:56:37.847Z,100546.31
2023-11-24T14:59:10.171Z,100543.38
2023-11-24T15:01:40.523Z,100532.28
2023-11-24T15:04:19.174Z,100549.59
2023-11-24T15:06:53.091Z,100555.59
2023-11-24T15:09:26.169Z,100548.59
2023-11-24T15:11:56.559Z,100548.47
2023-11-24T15:14:38.114Z,100549.84
2023-11-24T15:17:11.448Z,100571.72
2023-11-24T15:19:44.430Z,100547.84
2023-11-24T15:22:20.423Z,100542.41
2023-11-24T15:24:54.631Z,100551.22
2023-11-24T15:27:25.526Z,100549.03
2023-11-24T15:29:55.769Z,100544.13
2023-11-24T15:32:25.757Z,100551.53
2023-11-24T15:34:58.438Z,100566.91
2023-11-24T15:37:28.615Z,100565.00
2023-11-24T15:40:00.438Z,100565.38
2023-11-24T15:42:33.070Z,100569.41
2023-11-24T15:45:03.563Z,100587.06
2023-11-24T15:47:35.817Z,100596.31
2023-11-24T15:50:12.776Z,100599.28
2023-11-24T15:52:45.361Z,100583.47
2023-11-24T15:55:17.621Z,100580.56
2023-11-24T15:57:47.853Z,100585.34
2023-11-24T16:00:29.395Z,100561.91
2023-11-24T16:02:59.332Z,100560.81
2023-11-24T16:05:33.965Z,100555.22
2023-11-24T16:08:05.688Z,100551.41
2023-11-24T16:10:45.828Z,100555.13
2023-11-24T16:13:20.671Z,100579.03
2023-11-24T16:15:50.902Z,100573.63
2023-11-24T16:18:32.257Z,100581.06
2023-11-24T16:21:08.685Z,100582.16
2023-11-24T16:23:38.672Z,100596.72
2023-11-24T16:26:11.540Z,100587.91
2023-11-24T16:28:43.013Z,100597.28
2023-11-24T16:31:13.827Z,100611.09
2023-11-24T16:33:43.758Z,100619.44
2023-11-24T16:36:21.042Z,100626.72
2023-11-24T16:38:50.956Z,100633.75
2023-11-24T16:41:21.011Z,100623.78
2023-11-24T16:43:50.829Z,100586.19
2023-11-24T16:46:22.609Z,100568.19
2023-11-24T16:48:52.558Z,100555.00
2023-11-24T16:51:25.177Z,100557.19
2023-11-24T16:53:56.051Z,100541.25
2023-11-24T16:56:25.993Z,100539.50
2023-11-24T16:58:58.042Z,100542.94
2023-11-24T17:01:27.974Z,100536.56
2023-11-24T17:03:59.454Z,100534.13
2023-11-24T17:06:32.090Z,100537.63
2023-11-24T17:09:04.928Z,100535.47
2023-11-24T17:11:35.031Z,100539.31
2023-11-24T17:14:05.769Z,100556.03
2023-11-24T17:16:37.220Z,100539.41
2023-11-24T17:19:07.371Z,100533.22
2023-11-24T17:21:42.680Z,100540.00
2023-11-24T17:24:12.734Z,100540.00
2023-11-24T17:26:43.551Z,100543.00
2023-11-24T17:29:15.209Z,100523.84
2023-11-24T17:31:46.056Z,100542.69
2023-11-24T17:34:16.150Z,100545.38
2023-11-24T17:36:49.271Z,100547.56
2023-11-24T17:39:19.830Z,100532.44
2023-11-24T17:41:49.807Z,100523.78
2023-11-24T17:44:19.799Z,100522.91
2023-11-24T17:46:50.247Z,100512.72
2023-11-24T17:49:20.323Z,100510.81
2023-11-24T17:51:52.937Z,100503.84
2023-11-24T17:54:23.675Z,100502.75
2023-11-24T17:56:55.005Z,100511.91
2023-11-24T17:59:24.893Z,100510.44
2023-11-24T18:01:54.912Z,100497.22
2023-11-24T18:04:24.981Z,100493.19
2023-11-24T18:06:57.556Z,100496.44
2023-11-24T18:09:27.558Z,100492.13
2023-11-24T18:11:57.938Z,100491.03
2023-11-24T18:14:28.606Z,100488.66
2023-11-24T18:16:58.459Z,100476.34
2023-11-24T18:19:28.465Z,100482.47
2023-11-24T18:22:01.004Z,100497.75
2023-11-24T18:24:31.022Z,100486.72
2023-11-24T18:27:00.873Z,100494.22
2023-11-24T18:29:30.986Z,100487.75
2023-11-24T18:32:00.936Z,100492.56
2023-11-24T18:34:31.071Z,100493.13
2023-11-24T18:37:06.802Z,100490.94
2023-11-24T18:39:36.808Z,100492.56
2023-11-24T18:42:07.128Z,100480.53
2023-11-24T18:44:37.419Z,100488.31
2023-11-24T18:47:07.563Z,100493.19
2023-11-24T18:49:37.517Z,100479.16
2023-11-24T18:52:10.223Z,100474.09
2023-11-24T18:54:43.567Z,100478.69
2023-11-24T18:57:14.487Z,100481.91
2023-11-24T18:59:44.397Z,100481.59
2023-11-24T19:02:16.516Z,100488.88
2023-11-24T19:04:46.672Z,100474.63
2023-11-24T19:07:20.959Z,100477.84
2023-11-24T19:09:52.770Z,100499.09
2023-11-24T19:12:22.728Z,100501.16
2023-11-24T19:14:52.714Z,100508.13
2023-11-24T19:17:22.682Z,100538.84
2023-11-24T19:19:52.590Z,100552.88
2023-11-24T19:22:25.302Z,100555.34
2023-11-24T19:24:55.212Z,100578.84
2023-11-24T19:27:25.489Z,100582.94
2023-11-24T19:29:55.445Z,100599.94
2023-11-24T19:32:26.464Z,100584.41
2023-11-24T19:34:56.901Z,100575.03
2023-11-24T19:37:29.671Z,100573.97
2023-11-24T19:40:01.062Z,100562.41
2023-11-24T19:42:31.063Z,100558.75
2023-11-24T19:45:02.212Z,100554.97
2023-11-24T19:47:32.199Z,100559.03
2023-11-24T19:50:02.177Z,100547.47
2023-11-24T19:52:36.032Z,100533.47
2023-11-24T19:55:06.293Z,100534.22
2023-11-24T19:57:36.334Z,100536.63
2023-11-24T20:00:10.092Z,100537.81
2023-11-24T20:02:40.243Z,100532.34
2023-11-24T20:05:11.568Z,100536.63
2023-11-24T20:07:44.258Z,100533.94
2023-11-24T20:10:14.225Z,100526.69
2023-11-24T20:12:45.532Z,100542.31
2023-11-24T20:15:15.754Z,100537.22
2023-11-24T20:17:46.525Z,100543.19
2023-11-24T20:20:17.674Z,100546.13
2023-11-24T20:22:50.225Z,100531.38
2023-11-24T20:25:20.440Z,100532.41
2023-11-24T20:27:50.473Z,100537.22
2023-11-24T20:30:22.164Z,100535.63
2023-11-24T20:32:56.087Z,100546.94
2023-11-24T20:35:26.164Z,100537.56
2023-11-24T20:37:58.649Z,100551.81
2023-11-24T20:40:28.989Z,100555.53
2023-11-24T20:42:59.019Z,100561.47
2023-11-24T20:45:29.200Z,100566.06
2023-11-24T20:47:59.742Z,100584.06
2023-11-24T20:50:29.839Z,100599.63
2023-11-24T20:53:02.462Z,100624.94
2023-11-24T20:58:03.217Z,100647.59
2023-11-24T21:00:34.646Z,100656.22
2023-11-24T21:03:04.782Z,100660.53
2023-11-24T21:05:35.742Z,100669.13
2023-11-24T21:08:09.077Z,100672.91
2023-11-24T21:10:39.751Z,100676.69
2023-11-24T21:13:10.496Z,100679.09
2023-11-24T21:15:42.554Z,100688.50
2023-11-24T21:18:13.404Z,100694.91
2023-11-24T21:20:44.595Z,100692.50
2023-11-24T21:23:17.570Z,100690.09
2023-11-24T21:25:47.874Z,100700.06
2023-11-24T21:28:20.325Z,100702.50
2023-11-24T21:30:51.496Z,100712.72
2023-11-24T21:33:21.556Z,100718.66
2023-11-24T21:35:51.872Z,100721.34
2023-11-24T21:38:26.750Z,100743.75
2023-11-24T21:40:56.597Z,100744.56
2023-11-24T21:43:26.611Z,100771.00
2023-11-24T21:45:56.599Z,100755.22
2023-11-24T21:48:28.768Z,100754.19
2023-11-24T21:50:58.748Z,100749.19
2023-11-24T21:53:31.341Z,100748.13
2023-11-24T21:56:01.337Z,100756.75
2023-11-24T21:58:31.988Z,100757.28
2023-11-24T22:01:02.759Z,100765.34
2023-11-24T22:03:33.706Z,100774.25
2023-11-24T22:06:04.919Z,100753.53
2023-11-24T22:08:37.454Z,100750.84
2023-11-24T22:11:07.942Z,100739.53
2023-11-24T22:13:38.065Z,100730.91
2023-11-24T22:16:09.385Z,100748.34
2023-11-24T22:18:39.361Z,100741.06
2023-11-24T22:21:09.751Z,100740.50
2023-11-24T22:23:44.997Z,100746.69
2023-11-24T22:26:21.155Z,100761.19
2023-11-24T22:28:53.691Z,100770.63
2023-11-24T22:31:24.700Z,100773.84
2023-11-24T22:33:54.624Z,100777.03
2023-11-24T22:36:25.284Z,100767.38
2023-11-24T22:38:58.233Z,100781.34
2023-11-24T22:41:28.866Z,100777.84
2023-11-24T22:43:58.770Z,100789.16
2023-11-24T22:46:30.062Z,100793.44
2023-11-24T22:49:00.139Z,100789.69
2023-11-24T22:51:30.787Z,100801.22
2023-11-24T22:54:03.595Z,100810.38
2023-11-24T22:56:33.537Z,100814.16
2023-11-24T22:59:03.494Z,100817.38
2023-11-24T23:01:34.815Z,100809.81
2023-11-24T23:04:06.597Z,100811.41
2023-11-24T23:06:37.160Z,100818.13
2023-11-24T23:09:10.833Z,100816.78
2023-11-24T23:11:41.895Z,100825.38
2023-11-24T23:14:11.961Z,100826.44
2023-11-24T23:16:41.849Z,100845.81
2023-11-24T23:19:13.289Z,100856.56
2023-11-24T23:21:43.713Z,100861.94
2023-11-24T23:24:16.818Z,100875.91
2023-11-24T23:26:46.684Z,100873.22
2023-11-24T23:29:16.873Z,100871.34
2023-11-24T23:31:48.002Z,100865.19
2023-11-24T23:34:18.030Z,100867.88
2023-11-24T23:36:48.370Z,100856.84
2023-11-24T23:39:20.830Z,100856.28
2023-11-24T23:41:50.725Z,100863.03
2023-11-24T23:44:20.561Z,100856.84
2023-11-24T23:46:50.596Z,100865.72
2023-11-24T23:49:20.497Z,100875.41
2023-11-24T23:51:50.378Z,100876.47
2023-11-24T23:54:22.893Z,100879.19
2023-11-24T23:56:52.717Z,100883.47
2023-11-24T23:59:22.584Z,100882.13
